sensor_id;sensor_type;location;lat;lon;timestamp;temperature;humidity
61253;DHT22;47127;47.516;8.596;2024-02-26T00:02:22;7.30;99.90
61253;DHT22;47127;47.516;8.596;2024-02-26T00:04:48;7.30;99.90
61253;DHT22;47127;47.516;8.596;2024-02-26T00:07:14;7.40;99.90
61253;DHT22;47127;47.516;8.596;2024-02-26T00:09:39;7.40;99.90
61253;DHT22;47127;47.516;8.596;2024-02-26T00:12:05;7.40;99.90
61253;DHT22;47127;47.516;8.596;2024-02-26T00:14:31;7.20;99.90
61253;DHT22;47127;47.516;8.596;2024-02-26T00:16:57;7.20;99.90
61253;DHT22;47127;47.516;8.596;2024-02-26T00:19:22;7.10;99.90
61253;DHT22;47127;47.516;8.596;2024-02-26T00:21:48;7.10;99.90
61253;DHT22;47127;47.516;8.596;2024-02-26T00:24:13;7.20;99.90
61253;DHT22;47127;47.516;8.596;2024-02-26T00:26:39;7.20;99.90
61253;DHT22;47127;47.516;8.596;2024-02-26T00:29:05;7.20;99.90
61253;DHT22;47127;47.516;8.596;2024-02-26T00:31:30;7.20;99.90
61253;DHT22;47127;47.516;8.596;2024-02-26T00:33:56;7.20;99.90
61253;DHT22;47127;47.516;8.596;2024-02-26T00:36:22;7.20;99.90
61253;DHT22;47127;47.516;8.596;2024-02-26T00:38:47;7.20;99.90
61253;DHT22;47127;47.516;8.596;2024-02-26T00:41:17;7.30;99.90
61253;DHT22;47127;47.516;8.596;2024-02-26T00:43:42;7.20;99.90
61253;DHT22;47127;47.516;8.596;2024-02-26T00:46:08;7.20;99.90
61253;DHT22;47127;47.516;8.596;2024-02-26T00:48:33;7.10;99.90
61253;DHT22;47127;47.516;8.596;2024-02-26T00:50:59;7.10;99.90
61253;DHT22;47127;47.516;8.596;2024-02-26T00:53:25;7.10;99.90
61253;DHT22;47127;47.516;8.596;2024-02-26T00:55:51;7.20;99.90
61253;DHT22;47127;47.516;8.596;2024-02-26T00:58:17;7.20;99.90
61253;DHT22;47127;47.516;8.596;2024-02-26T01:00:44;7.20;99.90
61253;DHT22;47127;47.516;8.596;2024-02-26T01:03:10;7.20;99.90
61253;DHT22;47127;47.516;8.596;2024-02-26T01:05:36;7.30;99.90
61253;DHT22;47127;47.516;8.596;2024-02-26T01:08:03;7.30;99.90
61253;DHT22;47127;47.516;8.596;2024-02-26T01:10:29;7.30;99.90
61253;DHT22;47127;47.516;8.596;2024-02-26T01:12:54;7.20;99.90
61253;DHT22;47127;47.516;8.596;2024-02-26T01:15:20;7.30;99.90
61253;DHT22;47127;47.516;8.596;2024-02-26T01:17:49;7.30;99.90
61253;DHT22;47127;47.516;8.596;2024-02-26T01:20:18;7.20;99.90
61253;DHT22;47127;47.516;8.596;2024-02-26T01:22:44;7.20;99.90
61253;DHT22;47127;47.516;8.596;2024-02-26T01:25:10;7.20;99.90
61253;DHT22;47127;47.516;8.596;2024-02-26T01:27:36;7.20;99.90
61253;DHT22;47127;47.516;8.596;2024-02-26T01:30:03;7.30;99.90
61253;DHT22;47127;47.516;8.596;2024-02-26T01:32:31;7.30;99.90
61253;DHT22;47127;47.516;8.596;2024-02-26T01:34:56;7.30;99.90
61253;DHT22;47127;47.516;8.596;2024-02-26T01:37:22;7.30;99.90
61253;DHT22;47127;47.516;8.596;2024-02-26T01:39:48;7.20;99.90
61253;DHT22;47127;47.516;8.596;2024-02-26T01:42:14;6.60;99.90
61253;DHT22;47127;47.516;8.596;2024-02-26T01:44:39;6.90;99.90
61253;DHT22;47127;47.516;8.596;2024-02-26T01:47:11;7.00;99.90
61253;DHT22;47127;47.516;8.596;2024-02-26T01:49:38;7.00;99.90
61253;DHT22;47127;47.516;8.596;2024-02-26T01:52:06;7.10;99.90
61253;DHT22;47127;47.516;8.596;2024-02-26T01:54:34;7.10;99.90
61253;DHT22;47127;47.516;8.596;2024-02-26T01:57:02;7.10;99.90
61253;DHT22;47127;47.516;8.596;2024-02-26T01:59:28;7.10;99.90
61253;DHT22;47127;47.516;8.596;2024-02-26T02:01:57;7.10;99.90
61253;DHT22;47127;47.516;8.596;2024-02-26T02:04:23;7.20;99.90
61253;DHT22;47127;47.516;8.596;2024-02-26T02:06:50;7.10;99.90
61253;DHT22;47127;47.516;8.596;2024-02-26T02:09:18;7.10;99.90
61253;DHT22;47127;47.516;8.596;2024-02-26T02:11:43;7.10;99.90
61253;DHT22;47127;47.516;8.596;2024-02-26T02:14:10;7.10;99.90
61253;DHT22;47127;47.516;8.596;2024-02-26T02:16:35;7.20;99.90
61253;DHT22;47127;47.516;8.596;2024-02-26T02:19:01;7.30;99.90
61253;DHT22;47127;47.516;8.596;2024-02-26T02:21:26;7.30;99.90
61253;DHT22;47127;47.516;8.596;2024-02-26T02:23:52;7.30;99.90
61253;DHT22;47127;47.516;8.596;2024-02-26T02:26:18;7.30;99.90
61253;DHT22;47127;47.516;8.596;2024-02-26T02:28:45;7.20;99.90
61253;DHT22;47127;47.516;8.596;2024-02-26T02:31:11;7.10;99.90
61253;DHT22;47127;47.516;8.596;2024-02-26T02:33:37;6.90;99.90
61253;DHT22;47127;47.516;8.596;2024-02-26T02:36:03;7.00;99.90
61253;DHT22;47127;47.516;8.596;2024-02-26T02:38:29;7.00;99.90
61253;DHT22;47127;47.516;8.596;2024-02-26T02:40:56;7.00;99.90
61253;DHT22;47127;47.516;8.596;2024-02-26T02:43:21;7.10;99.90
61253;DHT22;47127;47.516;8.596;2024-02-26T02:45:47;7.10;99.90
61253;DHT22;47127;47.516;8.596;2024-02-26T02:48:12;7.20;99.90
61253;DHT22;47127;47.516;8.596;2024-02-26T02:50:38;7.10;99.90
61253;DHT22;47127;47.516;8.596;2024-02-26T02:53:04;7.20;99.90
61253;DHT22;47127;47.516;8.596;2024-02-26T02:55:29;7.20;99.90
61253;DHT22;47127;47.516;8.596;2024-02-26T02:57:55;7.30;99.90
61253;DHT22;47127;47.516;8.596;2024-02-26T03:00:20;7.30;99.90
61253;DHT22;47127;47.516;8.596;2024-02-26T03:02:48;7.30;99.90
61253;DHT22;47127;47.516;8.596;2024-02-26T03:05:14;7.20;99.90
61253;DHT22;47127;47.516;8.596;2024-02-26T03:07:40;7.20;99.90
61253;DHT22;47127;47.516;8.596;2024-02-26T03:10:05;7.10;99.90
61253;DHT22;47127;47.516;8.596;2024-02-26T03:12:33;7.10;99.90
61253;DHT22;47127;47.516;8.596;2024-02-26T03:14:59;7.10;99.90
61253;DHT22;47127;47.516;8.596;2024-02-26T03:17:28;7.00;99.90
61253;DHT22;47127;47.516;8.596;2024-02-26T03:19:53;7.00;99.90
61253;DHT22;47127;47.516;8.596;2024-02-26T03:22:19;6.90;99.90
61253;DHT22;47127;47.516;8.596;2024-02-26T03:24:46;6.90;99.90
61253;DHT22;47127;47.516;8.596;2024-02-26T03:27:12;7.00;99.90
61253;DHT22;47127;47.516;8.596;2024-02-26T03:29:38;7.00;99.90
61253;DHT22;47127;47.516;8.596;2024-02-26T03:32:04;7.00;99.90
61253;DHT22;47127;47.516;8.596;2024-02-26T03:34:30;7.10;99.90
61253;DHT22;47127;47.516;8.596;2024-02-26T03:36:56;7.00;99.90
61253;DHT22;47127;47.516;8.596;2024-02-26T03:39:22;7.00;99.90
61253;DHT22;47127;47.516;8.596;2024-02-26T03:41:48;7.00;99.90
61253;DHT22;47127;47.516;8.596;2024-02-26T03:44:14;7.00;99.90
61253;DHT22;47127;47.516;8.596;2024-02-26T03:46:41;7.00;99.90
61253;DHT22;47127;47.516;8.596;2024-02-26T03:49:08;7.10;99.90
61253;DHT22;47127;47.516;8.596;2024-02-26T03:51:34;7.10;99.90
61253;DHT22;47127;47.516;8.596;2024-02-26T03:54:00;7.10;99.90
61253;DHT22;47127;47.516;8.596;2024-02-26T03:56:26;7.20;99.90
61253;DHT22;47127;47.516;8.596;2024-02-26T03:58:52;7.20;99.90
61253;DHT22;47127;47.516;8.596;2024-02-26T04:01:18;7.10;99.90
61253;DHT22;47127;47.516;8.596;2024-02-26T04:03:44;7.00;99.90
61253;DHT22;47127;47.516;8.596;2024-02-26T04:06:10;7.00;99.90
61253;DHT22;47127;47.516;8.596;2024-02-26T04:08:36;7.00;99.90
61253;DHT22;47127;47.516;8.596;2024-02-26T04:11:03;7.00;99.90
61253;DHT22;47127;47.516;8.596;2024-02-26T04:13:36;7.10;99.90
61253;DHT22;47127;47.516;8.596;2024-02-26T04:16:05;7.20;99.90
61253;DHT22;47127;47.516;8.596;2024-02-26T04:18:32;7.30;99.90
61253;DHT22;47127;47.516;8.596;2024-02-26T04:20:58;7.20;99.90
61253;DHT22;47127;47.516;8.596;2024-02-26T04:23:24;7.20;99.90
61253;DHT22;47127;47.516;8.596;2024-02-26T04:25:49;7.30;99.90
61253;DHT22;47127;47.516;8.596;2024-02-26T04:28:15;7.30;99.90
61253;DHT22;47127;47.516;8.596;2024-02-26T04:30:41;7.40;99.90
61253;DHT22;47127;47.516;8.596;2024-02-26T04:33:06;7.40;99.90
61253;DHT22;47127;47.516;8.596;2024-02-26T04:35:32;7.50;99.90
61253;DHT22;47127;47.516;8.596;2024-02-26T04:37:58;7.50;99.90
61253;DHT22;47127;47.516;8.596;2024-02-26T04:40:23;7.60;99.90
61253;DHT22;47127;47.516;8.596;2024-02-26T04:42:49;7.50;99.90
61253;DHT22;47127;47.516;8.596;2024-02-26T04:45:15;7.40;99.90
61253;DHT22;47127;47.516;8.596;2024-02-26T04:47:40;7.40;99.90
61253;DHT22;47127;47.516;8.596;2024-02-26T04:50:07;7.30;99.90
61253;DHT22;47127;47.516;8.596;2024-02-26T04:52:35;7.30;99.90
61253;DHT22;47127;47.516;8.596;2024-02-26T04:55:01;7.30;99.90
61253;DHT22;47127;47.516;8.596;2024-02-26T04:57:27;7.30;99.90
61253;DHT22;47127;47.516;8.596;2024-02-26T04:59:53;7.30;99.90
61253;DHT22;47127;47.516;8.596;2024-02-26T05:02:20;7.30;99.90
61253;DHT22;47127;47.516;8.596;2024-02-26T05:04:45;7.40;99.90
61253;DHT22;47127;47.516;8.596;2024-02-26T05:07:12;7.40;99.90
61253;DHT22;47127;47.516;8.596;2024-02-26T05:09:39;7.40;99.90
61253;DHT22;47127;47.516;8.596;2024-02-26T05:12:07;7.50;99.90
61253;DHT22;47127;47.516;8.596;2024-02-26T05:14:33;7.50;99.90
61253;DHT22;47127;47.516;8.596;2024-02-26T05:16:58;7.60;99.90
61253;DHT22;47127;47.516;8.596;2024-02-26T05:19:27;7.60;99.90
61253;DHT22;47127;47.516;8.596;2024-02-26T05:21:53;7.60;99.90
61253;DHT22;47127;47.516;8.596;2024-02-26T05:24:18;7.50;99.90
61253;DHT22;47127;47.516;8.596;2024-02-26T05:26:47;7.40;99.90
61253;DHT22;47127;47.516;8.596;2024-02-26T05:29:13;7.40;99.90
61253;DHT22;47127;47.516;8.596;2024-02-26T05:31:39;7.30;99.90
61253;DHT22;47127;47.516;8.596;2024-02-26T05:34:05;7.20;99.90
61253;DHT22;47127;47.516;8.596;2024-02-26T05:36:30;7.20;99.90
61253;DHT22;47127;47.516;8.596;2024-02-26T05:38:59;7.20;99.90
61253;DHT22;47127;47.516;8.596;2024-02-26T05:41:25;7.30;99.90
61253;DHT22;47127;47.516;8.596;2024-02-26T05:43:52;7.20;99.90
61253;DHT22;47127;47.516;8.596;2024-02-26T05:46:19;7.20;99.90
61253;DHT22;47127;47.516;8.596;2024-02-26T05:48:46;7.10;99.90
61253;DHT22;47127;47.516;8.596;2024-02-26T05:51:12;7.00;99.90
61253;DHT22;47127;47.516;8.596;2024-02-26T05:53:38;7.00;99.90
61253;DHT22;47127;47.516;8.596;2024-02-26T05:56:04;6.90;99.90
61253;DHT22;47127;47.516;8.596;2024-02-26T05:58:31;7.00;99.90
61253;DHT22;47127;47.516;8.596;2024-02-26T06:00:57;7.10;99.90
61253;DHT22;47127;47.516;8.596;2024-02-26T06:03:23;7.10;99.90
61253;DHT22;47127;47.516;8.596;2024-02-26T06:05:49;7.20;99.90
61253;DHT22;47127;47.516;8.596;2024-02-26T06:08:15;7.20;99.90
61253;DHT22;47127;47.516;8.596;2024-02-26T06:10:41;7.30;99.90
61253;DHT22;47127;47.516;8.596;2024-02-26T06:13:06;7.30;99.90
61253;DHT22;47127;47.516;8.596;2024-02-26T06:15:32;7.30;99.90
61253;DHT22;47127;47.516;8.596;2024-02-26T06:17:58;7.30;99.90
61253;DHT22;47127;47.516;8.596;2024-02-26T06:20:23;7.40;99.90
61253;DHT22;47127;47.516;8.596;2024-02-26T06:22:49;7.40;99.90
61253;DHT22;47127;47.516;8.596;2024-02-26T06:25:15;7.50;99.90
61253;DHT22;47127;47.516;8.596;2024-02-26T06:27:40;7.50;99.90
61253;DHT22;47127;47.516;8.596;2024-02-26T06:33:47;7.50;99.90
61253;DHT22;47127;47.516;8.596;2024-02-26T06:36:12;7.40;99.90
61253;DHT22;47127;47.516;8.596;2024-02-26T06:38:41;7.20;99.90
61253;DHT22;47127;47.516;8.596;2024-02-26T06:41:07;7.30;99.90
61253;DHT22;47127;47.516;8.596;2024-02-26T06:43:32;7.30;99.90
61253;DHT22;47127;47.516;8.596;2024-02-26T06:45:58;7.40;99.90
61253;DHT22;47127;47.516;8.596;2024-02-26T06:48:24;7.40;99.90
61253;DHT22;47127;47.516;8.596;2024-02-26T06:50:53;7.60;99.90
61253;DHT22;47127;47.516;8.596;2024-02-26T06:53:19;7.70;99.90
61253;DHT22;47127;47.516;8.596;2024-02-26T06:55:44;7.80;99.90
61253;DHT22;47127;47.516;8.596;2024-02-26T06:58:10;7.80;99.90
61253;DHT22;47127;47.516;8.596;2024-02-26T07:00:35;7.80;99.90
61253;DHT22;47127;47.516;8.596;2024-02-26T07:03:01;7.80;99.90
61253;DHT22;47127;47.516;8.596;2024-02-26T07:05:27;7.90;99.90
61253;DHT22;47127;47.516;8.596;2024-02-26T07:07:53;8.00;99.90
61253;DHT22;47127;47.516;8.596;2024-02-26T07:10:18;8.00;99.90
61253;DHT22;47127;47.516;8.596;2024-02-26T07:12:44;7.90;99.90
61253;DHT22;47127;47.516;8.596;2024-02-26T07:15:10;7.80;99.90
61253;DHT22;47127;47.516;8.596;2024-02-26T07:17:36;7.80;99.90
61253;DHT22;47127;47.516;8.596;2024-02-26T07:20:02;7.70;99.90
61253;DHT22;47127;47.516;8.596;2024-02-26T07:22:30;7.70;99.90
61253;DHT22;47127;47.516;8.596;2024-02-26T07:24:55;7.70;99.90
61253;DHT22;47127;47.516;8.596;2024-02-26T07:27:21;7.70;99.90
61253;DHT22;47127;47.516;8.596;2024-02-26T07:29:47;7.70;99.90
61253;DHT22;47127;47.516;8.596;2024-02-26T07:32:12;7.70;99.90
61253;DHT22;47127;47.516;8.596;2024-02-26T07:34:38;7.70;99.90
61253;DHT22;47127;47.516;8.596;2024-02-26T07:37:07;7.70;99.90
61253;DHT22;47127;47.516;8.596;2024-02-26T07:39:33;7.70;99.90
61253;DHT22;47127;47.516;8.596;2024-02-26T07:41:59;7.70;99.90
61253;DHT22;47127;47.516;8.596;2024-02-26T07:44:24;7.90;99.90
61253;DHT22;47127;47.516;8.596;2024-02-26T07:46:50;8.00;99.90
61253;DHT22;47127;47.516;8.596;2024-02-26T07:49:16;8.20;99.90
61253;DHT22;47127;47.516;8.596;2024-02-26T07:51:41;8.30;99.90
61253;DHT22;47127;47.516;8.596;2024-02-26T07:54:07;8.40;99.90
61253;DHT22;47127;47.516;8.596;2024-02-26T07:56:33;8.60;99.90
61253;DHT22;47127;47.516;8.596;2024-02-26T07:58:58;8.70;99.90
61253;DHT22;47127;47.516;8.596;2024-02-26T08:01:24;8.70;99.90
61253;DHT22;47127;47.516;8.596;2024-02-26T08:03:51;8.70;99.90
61253;DHT22;47127;47.516;8.596;2024-02-26T08:06:16;8.80;99.90
61253;DHT22;47127;47.516;8.596;2024-02-26T08:08:42;8.90;99.90
61253;DHT22;47127;47.516;8.596;2024-02-26T08:11:09;8.90;99.90
61253;DHT22;47127;47.516;8.596;2024-02-26T08:13:34;9.00;99.90
61253;DHT22;47127;47.516;8.596;2024-02-26T08:16:01;9.20;99.90
61253;DHT22;47127;47.516;8.596;2024-02-26T08:18:26;9.20;99.90
61253;DHT22;47127;47.516;8.596;2024-02-26T08:20:52;9.20;99.90
61253;DHT22;47127;47.516;8.596;2024-02-26T08:23:18;9.10;99.90
61253;DHT22;47127;47.516;8.596;2024-02-26T08:25:43;9.00;99.90
61253;DHT22;47127;47.516;8.596;2024-02-26T08:28:09;9.10;99.90
61253;DHT22;47127;47.516;8.596;2024-02-26T08:30:38;9.00;99.90
61253;DHT22;47127;47.516;8.596;2024-02-26T08:33:04;9.00;99.90
61253;DHT22;47127;47.516;8.596;2024-02-26T08:35:30;8.90;99.90
61253;DHT22;47127;47.516;8.596;2024-02-26T08:37:55;8.90;99.90
61253;DHT22;47127;47.516;8.596;2024-02-26T08:40:21;9.00;99.90
61253;DHT22;47127;47.516;8.596;2024-02-26T08:42:47;9.20;99.90
61253;DHT22;47127;47.516;8.596;2024-02-26T08:45:13;9.30;99.90
61253;DHT22;47127;47.516;8.596;2024-02-26T08:47:38;9.50;99.90
61253;DHT22;47127;47.516;8.596;2024-02-26T08:50:05;9.60;99.90
61253;DHT22;47127;47.516;8.596;2024-02-26T08:52:33;9.50;99.90
61253;DHT22;47127;47.516;8.596;2024-02-26T08:54:59;9.40;99.90
61253;DHT22;47127;47.516;8.596;2024-02-26T08:57:26;9.40;99.90
61253;DHT22;47127;47.516;8.596;2024-02-26T08:59:52;9.40;99.90
61253;DHT22;47127;47.516;8.596;2024-02-26T09:02:18;10.60;99.90
61253;DHT22;47127;47.516;8.596;2024-02-26T09:04:46;9.50;99.90
61253;DHT22;47127;47.516;8.596;2024-02-26T09:07:12;9.60;99.90
61253;DHT22;47127;47.516;8.596;2024-02-26T09:09:37;9.70;99.90
61253;DHT22;47127;47.516;8.596;2024-02-26T09:12:04;9.90;99.90
61253;DHT22;47127;47.516;8.596;2024-02-26T09:14:32;9.90;99.90
61253;DHT22;47127;47.516;8.596;2024-02-26T09:16:58;12.70;99.90
61253;DHT22;47127;47.516;8.596;2024-02-26T09:19:25;9.90;99.90
61253;DHT22;47127;47.516;8.596;2024-02-26T09:21:51;9.90;99.90
61253;DHT22;47127;47.516;8.596;2024-02-26T09:24:17;9.90;99.90
61253;DHT22;47127;47.516;8.596;2024-02-26T09:26:43;9.90;99.90
61253;DHT22;47127;47.516;8.596;2024-02-26T09:29:08;9.90;99.90
61253;DHT22;47127;47.516;8.596;2024-02-26T09:31:34;9.80;99.90
61253;DHT22;47127;47.516;8.596;2024-02-26T09:34:01;9.80;99.90
61253;DHT22;47127;47.516;8.596;2024-02-26T09:36:27;9.80;99.90
61253;DHT22;47127;47.516;8.596;2024-02-26T09:38:52;9.80;99.90
61253;DHT22;47127;47.516;8.596;2024-02-26T09:41:18;9.90;99.90
61253;DHT22;47127;47.516;8.596;2024-02-26T09:43:45;9.90;99.90
61253;DHT22;47127;47.516;8.596;2024-02-26T09:46:11;9.90;99.90
61253;DHT22;47127;47.516;8.596;2024-02-26T09:48:37;9.90;99.90
61253;DHT22;47127;47.516;8.596;2024-02-26T09:51:04;9.90;99.90
61253;DHT22;47127;47.516;8.596;2024-02-26T09:53:31;10.00;99.90
61253;DHT22;47127;47.516;8.596;2024-02-26T09:56:00;10.00;99.90
61253;DHT22;47127;47.516;8.596;2024-02-26T09:58:29;10.00;99.90
61253;DHT22;47127;47.516;8.596;2024-02-26T10:00:56;10.10;99.90
61253;DHT22;47127;47.516;8.596;2024-02-26T10:03:40;10.10;99.90
61253;DHT22;47127;47.516;8.596;2024-02-26T10:06:07;10.00;99.90
61253;DHT22;47127;47.516;8.596;2024-02-26T10:08:37;10.10;99.90
61253;DHT22;47127;47.516;8.596;2024-02-26T10:11:10;10.10;99.90
61253;DHT22;47127;47.516;8.596;2024-02-26T10:13:36;10.20;99.90
61253;DHT22;47127;47.516;8.596;2024-02-26T10:16:02;10.30;99.90
61253;DHT22;47127;47.516;8.596;2024-02-26T10:18:48;10.30;99.90
61253;DHT22;47127;47.516;8.596;2024-02-26T10:21:16;10.50;99.90
61253;DHT22;47127;47.516;8.596;2024-02-26T10:23:43;10.60;99.90
61253;DHT22;47127;47.516;8.596;2024-02-26T10:26:10;10.60;99.90
61253;DHT22;47127;47.516;8.596;2024-02-26T10:28:38;10.70;99.90
61253;DHT22;47127;47.516;8.596;2024-02-26T10:31:04;10.70;99.90
61253;DHT22;47127;47.516;8.596;2024-02-26T10:33:34;10.70;99.90
61253;DHT22;47127;47.516;8.596;2024-02-26T10:36:02;10.80;99.90
61253;DHT22;47127;47.516;8.596;2024-02-26T10:38:29;10.80;99.90
61253;DHT22;47127;47.516;8.596;2024-02-26T10:40:55;10.90;99.90
61253;DHT22;47127;47.516;8.596;2024-02-26T10:43:21;10.90;99.90
61253;DHT22;47127;47.516;8.596;2024-02-26T10:45:47;10.90;99.90
61253;DHT22;47127;47.516;8.596;2024-02-26T10:48:15;11.00;99.90
61253;DHT22;47127;47.516;8.596;2024-02-26T10:50:43;11.00;99.90
61253;DHT22;47127;47.516;8.596;2024-02-26T10:53:15;11.10;99.90
61253;DHT22;47127;47.516;8.596;2024-02-26T10:55:42;11.00;99.90
61253;DHT22;47127;47.516;8.596;2024-02-26T10:58:10;11.10;99.90
61253;DHT22;47127;47.516;8.596;2024-02-26T11:00:38;11.00;99.90
61253;DHT22;47127;47.516;8.596;2024-02-26T11:03:05;11.00;99.50
61253;DHT22;47127;47.516;8.596;2024-02-26T11:05:31;11.00;99.30
61253;DHT22;47127;47.516;8.596;2024-02-26T11:07:59;11.10;99.20
61253;DHT22;47127;47.516;8.596;2024-02-26T11:10:26;11.00;99.60
61253;DHT22;47127;47.516;8.596;2024-02-26T11:12:54;11.00;99.30
61253;DHT22;47127;47.516;8.596;2024-02-26T11:15:21;11.00;99.40
61253;DHT22;47127;47.516;8.596;2024-02-26T11:17:48;11.00;99.50
61253;DHT22;47127;47.516;8.596;2024-02-26T11:20:14;11.00;99.30
61253;DHT22;47127;47.516;8.596;2024-02-26T11:22:40;11.20;99.60
61253;DHT22;47127;47.516;8.596;2024-02-26T11:25:06;11.30;99.80
61253;DHT22;47127;47.516;8.596;2024-02-26T11:27:38;11.30;99.90
61253;DHT22;47127;47.516;8.596;2024-02-26T11:30:09;11.20;99.90
61253;DHT22;47127;47.516;8.596;2024-02-26T11:32:35;11.30;99.90
61253;DHT22;47127;47.516;8.596;2024-02-26T11:35:01;11.30;99.80
61253;DHT22;47127;47.516;8.596;2024-02-26T11:37:29;11.30;99.70
61253;DHT22;47127;47.516;8.596;2024-02-26T11:39:55;11.20;99.90
61253;DHT22;47127;47.516;8.596;2024-02-26T11:42:24;11.20;99.90
61253;DHT22;47127;47.516;8.596;2024-02-26T11:44:55;11.10;99.90
61253;DHT22;47127;47.516;8.596;2024-02-26T11:47:27;11.00;99.90
61253;DHT22;47127;47.516;8.596;2024-02-26T11:49:52;11.10;99.90
61253;DHT22;47127;47.516;8.596;2024-02-26T11:52:18;11.10;99.90
61253;DHT22;47127;47.516;8.596;2024-02-26T11:54:51;11.10;99.90
61253;DHT22;47127;47.516;8.596;2024-02-26T11:57:27;11.20;99.90
61253;DHT22;47127;47.516;8.596;2024-02-26T12:00:13;11.20;99.90
61253;DHT22;47127;47.516;8.596;2024-02-26T12:02:52;11.20;99.90
61253;DHT22;47127;47.516;8.596;2024-02-26T12:05:31;11.20;99.90
61253;DHT22;47127;47.516;8.596;2024-02-26T12:08:05;11.40;99.90
61253;DHT22;47127;47.516;8.596;2024-02-26T12:10:34;11.60;99.30
61253;DHT22;47127;47.516;8.596;2024-02-26T12:13:12;11.70;99.20
61253;DHT22;47127;47.516;8.596;2024-02-26T12:15:57;11.80;99.20
61253;DHT22;47127;47.516;8.596;2024-02-26T12:18:23;11.90;98.80
61253;DHT22;47127;47.516;8.596;2024-02-26T12:20:59;11.90;98.70
61253;DHT22;47127;47.516;8.596;2024-02-26T12:23:29;12.00;98.20
61253;DHT22;47127;47.516;8.596;2024-02-26T12:25:59;12.00;98.50
61253;DHT22;47127;47.516;8.596;2024-02-26T12:28:28;12.00;98.30
61253;DHT22;47127;47.516;8.596;2024-02-26T12:30:54;12.10;97.90
61253;DHT22;47127;47.516;8.596;2024-02-26T12:33:20;12.00;98.10
61253;DHT22;47127;47.516;8.596;2024-02-26T12:35:46;12.00;97.90
61253;DHT22;47127;47.516;8.596;2024-02-26T12:38:15;12.10;97.70
61253;DHT22;47127;47.516;8.596;2024-02-26T12:40:41;12.20;97.80
61253;DHT22;47127;47.516;8.596;2024-02-26T12:43:07;12.40;97.40
61253;DHT22;47127;47.516;8.596;2024-02-26T12:45:40;12.30;97.40
61253;DHT22;47127;47.516;8.596;2024-02-26T12:48:06;12.30;97.60
61253;DHT22;47127;47.516;8.596;2024-02-26T12:50:32;12.20;97.50
61253;DHT22;47127;47.516;8.596;2024-02-26T12:52:58;12.20;96.40
61253;DHT22;47127;47.516;8.596;2024-02-26T12:55:24;12.30;96.60
61253;DHT22;47127;47.516;8.596;2024-02-26T12:57:52;12.40;96.50
61253;DHT22;47127;47.516;8.596;2024-02-26T13:00:23;12.60;96.10
61253;DHT22;47127;47.516;8.596;2024-02-26T13:02:51;12.80;95.70
61253;DHT22;47127;47.516;8.596;2024-02-26T13:05:20;13.20;95.30
61253;DHT22;47127;47.516;8.596;2024-02-26T13:07:47;13.20;94.90
61253;DHT22;47127;47.516;8.596;2024-02-26T13:10:13;13.10;93.70
61253;DHT22;47127;47.516;8.596;2024-02-26T13:12:46;13.20;93.80
61253;DHT22;47127;47.516;8.596;2024-02-26T13:15:19;13.10;94.10
61253;DHT22;47127;47.516;8.596;2024-02-26T13:17:46;13.20;94.60
61253;DHT22;47127;47.516;8.596;2024-02-26T13:20:13;13.20;94.10
61253;DHT22;47127;47.516;8.596;2024-02-26T13:22:40;13.00;94.80
61253;DHT22;47127;47.516;8.596;2024-02-26T13:25:06;12.80;95.40
61253;DHT22;47127;47.516;8.596;2024-02-26T13:27:33;12.70;95.30
61253;DHT22;47127;47.516;8.596;2024-02-26T13:30:08;12.60;95.20
61253;DHT22;47127;47.516;8.596;2024-02-26T13:32:36;12.50;95.20
61253;DHT22;47127;47.516;8.596;2024-02-26T13:35:10;12.50;95.40
61253;DHT22;47127;47.516;8.596;2024-02-26T13:37:38;12.70;95.20
61253;DHT22;47127;47.516;8.596;2024-02-26T13:40:11;12.80;95.30
61253;DHT22;47127;47.516;8.596;2024-02-26T13:42:37;12.70;95.40
61253;DHT22;47127;47.516;8.596;2024-02-26T13:45:05;12.70;95.30
61253;DHT22;47127;47.516;8.596;2024-02-26T13:47:32;12.70;95.10
61253;DHT22;47127;47.516;8.596;2024-02-26T13:49:59;12.70;95.20
61253;DHT22;47127;47.516;8.596;2024-02-26T13:52:26;12.50;95.50
61253;DHT22;47127;47.516;8.596;2024-02-26T13:54:52;12.30;95.60
61253;DHT22;47127;47.516;8.596;2024-02-26T13:57:19;12.20;95.80
61253;DHT22;47127;47.516;8.596;2024-02-26T13:59:46;12.20;95.70
61253;DHT22;47127;47.516;8.596;2024-02-26T14:02:14;12.10;95.70
61253;DHT22;47127;47.516;8.596;2024-02-26T14:04:41;12.20;96.10
61253;DHT22;47127;47.516;8.596;2024-02-26T14:07:07;12.30;96.30
61253;DHT22;47127;47.516;8.596;2024-02-26T14:09:33;12.20;96.00
61253;DHT22;47127;47.516;8.596;2024-02-26T14:12:01;12.40;95.80
61253;DHT22;47127;47.516;8.596;2024-02-26T14:14:28;12.20;95.70
61253;DHT22;47127;47.516;8.596;2024-02-26T14:16:54;12.60;95.70
61253;DHT22;47127;47.516;8.596;2024-02-26T14:19:21;12.30;95.70
61253;DHT22;47127;47.516;8.596;2024-02-26T14:21:47;12.10;95.70
61253;DHT22;47127;47.516;8.596;2024-02-26T14:24:15;12.10;95.80
61253;DHT22;47127;47.516;8.596;2024-02-26T14:26:42;12.10;95.90
61253;DHT22;47127;47.516;8.596;2024-02-26T14:29:08;12.10;96.10
61253;DHT22;47127;47.516;8.596;2024-02-26T14:31:33;11.90;96.00
61253;DHT22;47127;47.516;8.596;2024-02-26T14:33:59;11.90;96.30
61253;DHT22;47127;47.516;8.596;2024-02-26T14:36:26;11.90;96.40
61253;DHT22;47127;47.516;8.596;2024-02-26T14:38:52;12.00;96.30
61253;DHT22;47127;47.516;8.596;2024-02-26T14:41:17;12.00;96.40
61253;DHT22;47127;47.516;8.596;2024-02-26T14:43:43;11.90;96.10
61253;DHT22;47127;47.516;8.596;2024-02-26T14:46:10;11.90;96.20
61253;DHT22;47127;47.516;8.596;2024-02-26T14:48:37;11.90;96.20
61253;DHT22;47127;47.516;8.596;2024-02-26T14:51:03;11.80;95.90
61253;DHT22;47127;47.516;8.596;2024-02-26T14:53:33;11.80;95.80
61253;DHT22;47127;47.516;8.596;2024-02-26T14:56:00;11.80;95.80
61253;DHT22;47127;47.516;8.596;2024-02-26T14:58:27;11.70;95.60
61253;DHT22;47127;47.516;8.596;2024-02-26T15:00:53;11.70;95.70
61253;DHT22;47127;47.516;8.596;2024-02-26T15:03:18;11.80;95.70
61253;DHT22;47127;47.516;8.596;2024-02-26T15:05:44;11.80;96.00
61253;DHT22;47127;47.516;8.596;2024-02-26T15:08:09;11.70;96.00
61253;DHT22;47127;47.516;8.596;2024-02-26T15:10:40;11.80;96.00
61253;DHT22;47127;47.516;8.596;2024-02-26T15:13:08;11.70;95.90
61253;DHT22;47127;47.516;8.596;2024-02-26T15:15:35;11.80;96.30
61253;DHT22;47127;47.516;8.596;2024-02-26T15:18:01;11.70;96.20
61253;DHT22;47127;47.516;8.596;2024-02-26T15:20:27;11.70;96.50
61253;DHT22;47127;47.516;8.596;2024-02-26T15:22:52;11.70;96.70
61253;DHT22;47127;47.516;8.596;2024-02-26T15:25:18;11.70;96.80
61253;DHT22;47127;47.516;8.596;2024-02-26T15:27:45;11.70;97.00
61253;DHT22;47127;47.516;8.596;2024-02-26T15:30:11;11.70;97.30
61253;DHT22;47127;47.516;8.596;2024-02-26T15:32:37;11.70;97.90
61253;DHT22;47127;47.516;8.596;2024-02-26T15:35:02;11.80;97.70
61253;DHT22;47127;47.516;8.596;2024-02-26T15:37:29;11.70;98.00
61253;DHT22;47127;47.516;8.596;2024-02-26T15:39:55;11.70;98.20
61253;DHT22;47127;47.516;8.596;2024-02-26T15:42:21;11.60;97.90